Time;durP1;ratioP1;P1;durP2;ratioP2;P2;SDS_P1;SDS_P2;PMS_P1;PMS_P2;Temp;Humidity;BMP_temperature;BMP_pressure;BME280_temperature;BME280_humidity;BME280_pressure;Samples;Min_cycle;Max_cycle;Signal;HPM_P1;HPM_P2
2022/02/08 00:00:49;;;;;;;5.68;2.15;;;6.30;99.90;;;;;;4922487;29;20190;-81
2022/02/08 00:03:19;;;;;;;7.97;1.95;;;6.50;99.90;;;;;;4910801;29;20586;-82
2022/02/08 00:05:56;;;;;;;2.72;2.53;;;6.60;99.90;;;;;;4922648;29;20187;-81
2022/02/08 00:08:22;;;;;;;3.72;2.10;;;6.50;99.90;;;;;;4925457;29;20225;-82
2022/02/08 00:10:48;;;;;;;4.97;2.23;;;7.30;99.90;;;;;;4912117;29;20294;-82
2022/02/08 00:13:13;;;;;;;7.47;3.17;;;6.60;99.90;;;;;;4910403;29;20202;-82
2022/02/08 00:15:39;;;;;;;3.70;2.33;;;6.50;99.90;;;;;;4903165;29;20203;-82
2022/02/08 00:18:05;;;;;;;5.50;2.10;;;6.80;99.90;;;;;;4925077;29;20207;-82
2022/02/08 00:20:31;;;;;;;10.88;2.83;;;6.10;99.90;;;;;;4920807;29;20195;-83
2022/02/08 00:22:56;;;;;;;3.27;2.23;;;6.60;99.90;;;;;;4908930;29;20210;-82
2022/02/08 00:25:22;;;;;;;11.60;2.40;;;6.40;99.90;;;;;;4920359;29;20195;-82
2022/02/08 00:27:47;;;;;;;9.33;2.37;;;6.60;99.90;;;;;;4899774;29;20231;-82
2022/02/08 00:30:13;;;;;;;1.50;1.50;;;6.60;99.90;;;;;;4909021;29;20519;-82
2022/02/08 00:32:38;;;;;;;6.00;2.43;;;6.50;99.90;;;;;;4918339;29;20226;-82
2022/02/08 00:35:04;;;;;;;3.37;2.73;;;6.00;99.90;;;;;;4927947;29;20195;-82
2022/02/08 00:37:30;;;;;;;12.33;3.03;;;6.60;99.90;;;;;;4922772;29;20199;-82
2022/02/08 00:39:56;;;;;;;5.37;2.57;;;6.60;99.90;;;;;;4910841;29;20527;-82
2022/02/08 00:42:23;;;;;;;2.20;2.07;;;6.60;99.90;;;;;;4901193;29;20206;-83
2022/02/08 00:45:00;;;;;;;5.85;3.05;;;6.60;99.90;;;;;;4922847;29;20191;-83
2022/02/08 00:49:51;;;;;;;6.97;3.80;;;6.00;99.90;;;;;;4923127;29;20200;-82
2022/02/08 00:52:18;;;;;;;4.40;2.40;;;6.60;99.90;;;;;;4909815;29;20271;-82
2022/02/08 00:54:46;;;;;;;2.33;2.17;;;6.40;99.90;;;;;;4915571;29;20219;-81
2022/02/08 00:57:12;;;;;;;9.07;3.75;;;6.70;99.90;;;;;;4922115;29;20214;-82
2022/02/08 00:59:38;;;;;;;7.13;2.42;;;6.70;99.90;;;;;;4916395;29;20540;-81
2022/02/08 01:02:06;;;;;;;7.82;3.20;;;7.70;99.90;;;;;;4923490;29;20557;-81
2022/02/08 01:04:31;;;;;;;6.13;3.00;;;6.60;99.90;;;;;;4916401;29;20194;-82
2022/02/08 01:06:59;;;;;;;11.07;3.23;;;6.60;99.90;;;;;;4925251;29;20681;-82
2022/02/08 01:12:02;;;;;;;7.13;3.75;;;6.10;99.90;;;;;;4922584;29;20622;-82
2022/02/08 01:14:29;;;;;;;7.77;3.17;;;6.80;99.90;;;;;;4918864;29;20191;-83
2022/02/08 01:16:55;;;;;;;10.68;3.50;;;6.70;99.90;;;;;;4923301;29;20450;-82
2022/02/08 01:19:22;;;;;;;5.63;3.20;;;6.80;99.90;;;;;;4918748;29;20192;-83
2022/02/08 01:21:48;;;;;;;8.93;4.28;;;6.70;99.90;;;;;;4907639;29;20199;-83
2022/02/08 01:24:14;;;;;;;6.73;3.50;;;6.60;99.90;;;;;;4918790;29;20195;-82
2022/02/08 01:26:51;;;;;;;10.23;3.40;;;6.50;99.90;;;;;;4922372;29;20235;-81
2022/02/08 01:29:24;;;;;;;8.07;4.22;;;6.50;99.90;;;;;;4920425;29;20264;-83
2022/02/08 01:31:51;;;;;;;19.02;4.90;;;6.50;99.90;;;;;;4909862;29;20725;-81
2022/02/08 01:36:50;;;;;;;10.17;3.37;;;6.40;99.90;;;;;;4921854;29;20339;-81
2022/02/08 01:39:30;;;;;;;9.25;5.15;;;6.30;99.90;;;;;;4918432;29;20236;-83
2022/02/08 01:45:02;;;;;;;16.98;4.88;;;6.10;99.90;;;;;;4923656;29;20237;-81
2022/02/08 01:47:44;;;;;;;11.75;4.68;;;6.10;99.90;;;;;;4913034;29;20207;-81
2022/02/08 01:50:15;;;;;;;9.43;4.85;;;6.10;99.90;;;;;;4919346;29;20179;-81
2022/02/08 01:52:41;;;;;;;16.42;4.85;;;6.20;99.90;;;;;;4929933;29;20265;-82
2022/02/08 01:55:09;;;;;;;13.65;5.30;;;6.70;99.90;;;;;;4922578;29;20228;-81
2022/02/08 01:57:36;;;;;;;17.23;6.32;;;6.00;99.90;;;;;;4921505;29;20586;-81
2022/02/08 02:00:08;;;;;;;11.05;4.30;;;6.00;99.90;;;;;;4920790;29;20202;-82
2022/02/08 02:02:34;;;;;;;14.60;4.88;;;6.00;99.90;;;;;;4920421;29;20334;-82
2022/02/08 02:05:00;;;;;;;13.23;4.60;;;6.00;99.90;;;;;;4922296;29;20275;-82
2022/02/08 02:07:26;;;;;;;4.20;3.43;;;7.00;99.90;;;;;;4922342;29;20335;-82
2022/02/08 02:09:52;;;;;;;13.40;4.88;;;5.80;99.90;;;;;;4918459;29;20666;-81
2022/02/08 02:12:18;;;;;;;10.17;5.70;;;6.00;99.90;;;;;;4925082;29;20238;-82
2022/02/08 02:14:44;;;;;;;7.63;4.50;;;5.90;99.90;;;;;;4921511;29;20283;-82
2022/02/08 02:17:10;;;;;;;6.55;5.30;;;6.00;99.90;;;;;;4928185;29;20447;-81
2022/02/08 02:19:39;;;;;;;5.03;2.60;;;6.00;99.90;;;;;;4922629;29;20195;-81
2022/02/08 02:22:06;;;;;;;17.90;5.93;;;6.00;99.90;;;;;;4928067;29;20230;-82
2022/02/08 02:24:33;;;;;;;13.32;4.60;;;6.00;99.90;;;;;;4926702;29;20595;-82
2022/02/08 02:26:59;;;;;;;8.02;4.75;;;6.00;99.90;;;;;;4923608;29;20222;-82
2022/02/08 02:29:26;;;;;;;8.40;5.13;;;6.00;99.90;;;;;;4905833;29;20195;-81
2022/02/08 02:31:53;;;;;;;7.93;6.47;;;6.00;99.90;;;;;;4905782;29;20668;-82
2022/02/08 02:34:52;;;;;;;12.52;5.75;;;5.80;99.90;;;;;;4920496;29;20196;-82
2022/02/08 02:37:18;;;;;;;9.63;6.18;;;6.00;99.90;;;;;;4909549;29;20215;-82
2022/02/08 02:39:47;;;;;;;14.02;5.25;;;5.90;99.90;;;;;;4913942;29;20196;-82
2022/02/08 02:42:14;;;;;;;8.48;4.90;;;5.80;99.90;;;;;;4911089;29;20601;-82
2022/02/08 02:44:40;;;;;;;12.52;5.95;;;7.80;99.90;;;;;;4924479;29;20188;-83
2022/02/08 02:47:06;;;;;;;12.00;6.67;;;5.90;99.90;;;;;;4908181;29;20199;-81
2022/02/08 02:49:32;;;;;;;13.70;6.70;;;5.90;99.90;;;;;;4914575;29;20443;-82
2022/02/08 02:51:57;;;;;;;11.67;5.60;;;6.90;99.90;;;;;;4905581;29;21023;-82
2022/02/08 02:54:23;;;;;;;8.77;5.73;;;6.00;99.90;;;;;;4923241;29;20221;-83
2022/02/08 02:56:49;;;;;;;17.90;7.67;;;6.00;99.90;;;;;;4895843;29;20467;-83
2022/02/08 02:59:17;;;;;;;17.40;8.48;;;6.00;99.90;;;;;;4922992;29;20203;-82
2022/02/08 03:20:34;;;;;;;13.77;7.82;;;5.80;99.90;;;;;;4918252;29;20627;-82
2022/02/08 03:23:00;;;;;;;7.93;6.73;;;6.00;99.90;;;;;;4906765;29;20234;-82
2022/02/08 03:25:25;;;;;;;8.40;6.80;;;6.80;99.90;;;;;;4897407;29;20281;-82
2022/02/08 03:27:51;;;;;;;7.40;6.57;;;6.10;99.90;;;;;;4904766;29;20188;-82
2022/02/08 03:30:16;;;;;;;7.23;6.63;;;6.30;99.90;;;;;;4902138;29;20274;-83
2022/02/08 03:32:42;;;;;;;9.97;7.93;;;6.10;99.90;;;;;;4924711;29;20223;-83
2022/02/08 03:35:10;;;;;;;7.37;6.13;;;5.90;99.90;;;;;;4901824;29;20245;-83
2022/02/08 03:37:35;;;;;;;7.70;6.88;;;6.20;99.90;;;;;;4908548;29;20435;-82
2022/02/08 03:40:09;;;;;;;10.63;7.17;;;6.00;99.90;;;;;;4902321;29;20563;-82
2022/02/08 03:42:39;;;;;;;8.23;6.55;;;6.20;99.90;;;;;;4929913;29;20540;-82
2022/02/08 03:45:08;;;;;;;8.43;7.45;;;6.10;99.90;;;;;;4928306;29;20314;-82
2022/02/08 03:47:35;;;;;;;12.32;8.57;;;6.30;99.90;;;;;;4926473;29;20195;-82
2022/02/08 03:50:03;;;;;;;13.27;9.43;;;6.10;99.90;;;;;;4902484;29;20874;-82
2022/02/08 03:52:29;;;;;;;8.07;7.28;;;6.50;99.90;;;;;;4923058;29;20229;-82
2022/02/08 03:54:54;;;;;;;7.77;7.10;;;6.10;99.90;;;;;;4905699;29;20223;-82
2022/02/08 03:57:24;;;;;;;9.07;8.17;;;6.20;99.90;;;;;;4925748;29;20290;-82
2022/02/08 03:59:49;;;;;;;13.63;10.07;;;5.60;99.90;;;;;;4925360;29;20829;-82
2022/02/08 04:05:11;;;;;;;10.60;9.02;;;6.10;99.90;;;;;;4920033;29;20366;-82
2022/02/08 04:07:43;;;;;;;9.23;8.43;;;6.30;99.90;;;;;;4921473;29;20331;-82
2022/02/08 04:10:13;;;;;;;10.60;9.60;;;6.30;99.90;;;;;;4925454;29;20175;-82
2022/02/08 04:12:47;;;;;;;10.00;9.02;;;6.00;99.90;;;;;;4910703;29;20541;-81
2022/02/08 04:46:58;;;;;;;14.73;8.97;;;6.50;99.90;;;;;;4927048;29;20226;-82
2022/02/08 04:49:24;;;;;;;10.60;9.60;;;6.70;99.90;;;;;;4930422;29;20183;-82
2022/02/08 04:51:55;;;;;;;12.37;11.13;;;6.80;99.90;;;;;;4906468;29;20231;-82
2022/02/08 04:57:08;;;;;;;14.20;10.07;;;6.80;99.90;;;;;;4903962;29;20439;-81
2022/02/08 05:02:21;;;;;;;13.32;10.65;;;6.90;99.90;;;;;;4903832;29;20284;-84
2022/02/08 05:45:12;;;;;;;12.00;10.80;;;7.30;99.90;;;;;;4902320;29;20534;-83
2022/02/08 05:47:42;;;;;;;12.07;10.60;;;7.30;99.90;;;;;;4905130;29;20191;-83
2022/02/08 05:50:58;;;;;;;12.13;10.60;;;6.80;99.90;;;;;;4900325;29;20204;-83
2022/02/08 05:55:27;;;;;;;12.43;8.20;;;7.30;99.90;;;;;;4906899;29;20372;-83
2022/02/08 05:57:52;;;;;;;9.68;8.48;;;7.70;99.90;;;;;;4926848;29;20282;-83
2022/02/08 06:00:20;;;;;;;9.80;8.83;;;6.90;99.90;;;;;;4928972;29;20343;-83
2022/02/08 06:02:48;;;;;;;9.70;8.90;;;7.30;99.90;;;;;;4921774;29;20654;-83
2022/02/08 06:05:18;;;;;;;7.50;6.88;;;8.60;99.90;;;;;;4908438;29;20199;-82
2022/02/08 06:07:44;;;;;;;7.03;6.32;;;7.30;99.90;;;;;;4922953;29;20195;-81
2022/02/08 06:10:12;;;;;;;10.60;9.60;;;7.40;99.90;;;;;;4913286;29;20199;-81
2022/02/08 06:12:51;;;;;;;10.68;9.38;;;7.40;99.90;;;;;;4923168;29;20486;-81
2022/02/08 06:15:20;;;;;;;10.77;9.88;;;7.30;99.90;;;;;;4921225;29;20199;-81
2022/02/08 06:17:46;;;;;;;6.82;6.43;;;7.30;99.90;;;;;;4914089;29;20249;-82
2022/02/08 06:20:13;;;;;;;8.25;7.45;;;7.40;99.90;;;;;;4893937;29;20749;-82
2022/02/08 06:22:42;;;;;;;10.50;9.13;;;7.50;99.90;;;;;;4930444;29;20194;-83
2022/02/08 06:25:12;;;;;;;9.30;8.52;;;7.50;99.90;;;;;;4919613;29;20195;-82
2022/02/08 06:27:39;;;;;;;8.57;7.78;;;7.50;99.90;;;;;;4894951;29;20196;-82
2022/02/08 06:30:06;;;;;;;8.23;7.50;;;7.60;99.90;;;;;;4912610;29;20199;-82
2022/02/08 06:32:33;;;;;;;9.23;8.40;;;7.50;99.90;;;;;;4896017;29;20207;-82
2022/02/08 06:35:00;;;;;;;8.30;7.60;;;7.40;99.90;;;;;;4929268;29;20589;-81
2022/02/08 06:37:31;;;;;;;9.25;8.35;;;7.60;99.90;;;;;;4911107;29;20291;-82
2022/02/08 06:39:57;;;;;;;9.35;8.55;;;8.20;99.90;;;;;;4904394;29;20188;-83
2022/02/08 06:42:24;;;;;;;8.10;7.03;;;7.40;99.90;;;;;;4928110;29;20206;-82
2022/02/08 06:44:52;;;;;;;8.40;7.57;;;7.60;99.90;;;;;;4926490;29;20490;-83
2022/02/08 06:47:21;;;;;;;9.40;8.48;;;7.70;99.90;;;;;;4925944;29;20207;-81
2022/02/08 06:49:47;;;;;;;8.75;7.95;;;7.10;99.90;;;;;;4906521;29;20298;-80
2022/02/08 06:52:13;;;;;;;11.05;9.95;;;7.60;99.90;;;;;;4912649;29;20218;-82
2022/02/08 06:54:39;;;;;;;7.80;7.20;;;6.20;99.90;;;;;;4912622;29;20226;-82
2022/02/08 06:57:05;;;;;;;8.13;7.43;;;7.60;99.90;;;;;;4907219;29;20262;-83
2022/02/08 06:59:37;;;;;;;8.35;7.60;;;7.60;99.90;;;;;;4909465;29;20202;-83
2022/02/08 07:02:03;;;;;;;8.93;8.13;;;7.60;99.90;;;;;;4924801;29;20622;-82
2022/02/08 07:04:28;;;;;;;11.43;9.57;;;7.60;99.90;;;;;;4919532;29;20218;-83
2022/02/08 07:06:54;;;;;;;9.60;8.70;;;7.50;99.90;;;;;;4927325;29;20688;-84
2022/02/08 07:09:20;;;;;;;8.70;7.90;;;7.70;99.90;;;;;;4909900;29;20206;-84
2022/02/08 07:11:47;;;;;;;7.87;7.27;;;7.80;99.90;;;;;;4230688;29;10000723;-83
2022/02/08 07:14:13;;;;;;;8.70;8.00;;;7.40;99.90;;;;;;4926774;29;20875;-84
2022/02/08 07:16:39;;;;;;;9.07;8.30;;;7.60;99.90;;;;;;4925691;29;20582;-83
2022/02/08 07:19:05;;;;;;;6.90;6.50;;;7.80;99.90;;;;;;4925418;29;20195;-83
2022/02/08 07:21:31;;;;;;;8.70;8.03;;;6.90;99.90;;;;;;4924485;29;21078;-83
2022/02/08 07:23:57;;;;;;;8.35;6.90;;;7.90;99.90;;;;;;4926928;29;20187;-83
2022/02/08 07:26:23;;;;;;;8.57;7.97;;;9.10;99.90;;;;;;4921438;29;20354;-82
2022/02/08 07:28:52;;;;;;;9.48;8.60;;;7.90;99.90;;;;;;4910596;29;20215;-83
2022/02/08 07:31:22;;;;;;;9.32;8.23;;;7.80;99.90;;;;;;4904585;29;20437;-83
2022/02/08 07:33:58;;;;;;;9.55;7.15;;;7.90;99.90;;;;;;4926482;29;20376;-83
2022/02/08 07:39:23;;;;;;;9.27;8.38;;;8.00;99.90;;;;;;4914848;29;20275;-82
2022/02/08 07:41:49;;;;;;;8.98;8.27;;;8.30;99.90;;;;;;4901639;29;20257;-83
2022/02/08 07:44:15;;;;;;;8.03;7.40;;;7.70;99.90;;;;;;4911565;29;20190;-83
2022/02/08 07:46:41;;;;;;;6.37;5.80;;;8.00;99.90;;;;;;4906283;29;20815;-83
2022/02/08 07:49:06;;;;;;;9.87;9.17;;;6.90;99.90;;;;;;4908260;29;20326;-82
2022/02/08 07:51:34;;;;;;;7.90;7.30;;;7.40;99.90;;;;;;4908113;29;20254;-84
2022/02/08 07:54:03;;;;;;;9.15;8.45;;;8.00;99.90;;;;;;4903543;29;20210;-83
2022/02/08 07:56:29;;;;;;;9.25;8.45;;;8.00;99.90;;;;;;4923055;29;20222;-84
2022/02/08 07:58:55;;;;;;;7.70;7.00;;;8.00;99.90;;;;;;4941985;29;21154;-83
2022/02/08 08:01:21;;;;;;;8.73;7.93;;;8.00;99.90;;;;;;4910069;29;20677;-83
2022/02/08 08:03:47;;;;;;;7.97;7.25;;;8.10;99.90;;;;;;4906324;29;21092;-83
2022/02/08 08:06:18;;;;;;;8.03;7.23;;;8.00;99.90;;;;;;4890046;29;20499;-83
2022/02/08 08:08:44;;;;;;;9.00;8.23;;;10.00;99.90;;;;;;4889692;29;20210;-82
2022/02/08 08:11:20;;;;;;;8.95;8.25;;;8.00;99.90;;;;;;4917847;29;20667;-83
2022/02/08 08:14:16;;;;;;;8.65;7.50;;;10.10;99.90;;;;;;4919824;29;20229;-85
2022/02/08 08:16:54;;;;;;;8.70;7.88;;;8.30;99.90;;;;;;4928336;29;20187;-84
2022/02/08 08:19:37;;;;;;;8.43;7.72;;;8.30;99.90;;;;;;4891840;29;20704;-85
2022/02/08 08:22:06;;;;;;;9.50;8.57;;;8.30;99.90;;;;;;4891233;29;20233;-83
2022/02/08 08:24:31;;;;;;;9.93;9.10;;;8.10;99.90;;;;;;4919398;29;20251;-83
2022/02/08 08:26:57;;;;;;;8.67;7.87;;;8.30;99.90;;;;;;4909892;29;20238;-83
2022/02/08 08:29:38;;;;;;;10.33;9.33;;;8.40;99.90;;;;;;4920012;29;20199;-82
2022/02/08 08:32:04;;;;;;;10.18;9.00;;;8.90;99.90;;;;;;4890997;29;20211;-82
2022/02/08 08:34:31;;;;;;;10.25;9.20;;;8.40;99.90;;;;;;4915909;29;20281;-82
2022/02/08 08:36:57;;;;;;;12.07;9.55;;;8.40;99.90;;;;;;4932402;29;20524;-82
2022/02/08 08:39:27;;;;;;;10.45;9.07;;;8.50;99.90;;;;;;4904017;29;20656;-82
2022/02/08 08:42:21;;;;;;;11.95;8.50;;;7.60;99.90;;;;;;4918472;29;20175;-83
2022/02/08 08:52:32;;;;;;;14.07;9.35;;;8.60;99.90;;;;;;4927822;29;20218;-83
2022/02/08 08:54:58;;;;;;;13.77;8.90;;;9.90;99.90;;;;;;4912087;29;20223;-83
2022/02/08 08:57:26;;;;;;;7.25;6.55;;;8.80;99.90;;;;;;4917964;29;20187;-84
2022/02/08 08:59:51;;;;;;;11.40;8.77;;;8.80;99.90;;;;;;4925235;29;20560;-83
2022/02/08 09:02:17;;;;;;;16.40;9.00;;;8.00;99.90;;;;;;4909697;29;20474;-82
2022/02/08 09:04:44;;;;;;;10.90;9.47;;;10.40;99.90;;;;;;4927919;29;20206;-84
2022/02/08 09:07:10;;;;;;;9.18;7.95;;;10.60;99.90;;;;;;4926774;29;20195;-83
2022/02/08 09:09:40;;;;;;;10.30;8.25;;;8.90;99.90;;;;;;4918832;29;20298;-83
2022/02/08 09:14:47;;;;;;;9.32;8.45;;;8.80;99.90;;;;;;4923610;29;20483;-82
2022/02/08 09:23:34;;;;;;;7.25;6.70;;;11.00;99.90;;;;;;4865813;29;20621;-83
2022/02/08 09:31:00;;;;;;;6.93;6.43;;;9.40;99.90;;;;;;4936736;29;20179;-83
2022/02/08 09:33:26;;;;;;;8.90;8.00;;;9.20;99.90;;;;;;4906556;29;20203;-84
2022/02/08 09:35:52;;;;;;;10.07;7.10;;;7.30;99.90;;;;;;4918581;29;20183;-84
2022/02/08 09:38:19;;;;;;;10.67;7.37;;;10.60;99.90;;;;;;4918652;29;20434;-84
2022/02/08 09:40:46;;;;;;;8.57;7.67;;;9.20;99.90;;;;;;4922083;29;20463;-83
2022/02/08 09:43:13;;;;;;;12.00;7.57;;;9.70;99.90;;;;;;4920759;29;20501;-83
2022/02/08 09:45:48;;;;;;;8.05;7.13;;;9.40;99.90;;;;;;4908168;29;20261;-83
2022/02/08 09:48:55;;;;;;;14.13;7.95;;;9.30;99.90;;;;;;4913454;29;20202;-83
2022/02/08 09:51:22;;;;;;;8.57;7.87;;;9.30;99.90;;;;;;4904846;29;20665;-83
2022/02/08 09:53:59;;;;;;;9.93;6.63;;;8.80;99.90;;;;;;4899936;29;20917;-83
2022/02/08 09:56:27;;;;;;;13.73;7.23;;;8.10;99.90;;;;;;4891776;29;20219;-83
2022/02/08 09:58:53;;;;;;;8.70;7.13;;;9.40;99.90;;;;;;4916795;29;20949;-84
2022/02/08 10:01:24;;;;;;;7.35;6.57;;;9.20;99.90;;;;;;4910322;29;20188;-84
2022/02/08 10:03:58;;;;;;;12.07;6.40;;;9.50;99.90;;;;;;4904564;29;20705;-82
2022/02/08 10:06:26;;;;;;;6.37;5.80;;;9.60;99.90;;;;;;4902832;29;20414;-83
2022/02/08 10:09:09;;;;;;;8.97;6.40;;;9.60;99.90;;;;;;4924947;29;20494;-82
2022/02/08 10:11:54;;;;;;;7.13;6.43;;;7.90;99.90;;;;;;4906463;29;21039;-82
2022/02/08 10:23:21;;;;;;;6.50;5.90;;;9.90;99.90;;;;;;4914022;29;20214;-84
2022/02/08 10:25:59;;;;;;;9.60;5.40;;;10.40;99.90;;;;;;4908241;29;20172;-83
2022/02/08 10:28:40;;;;;;;5.63;5.32;;;9.90;99.90;;;;;;4903151;29;20500;-83
2022/02/08 10:39:06;;;;;;;5.20;3.43;;;11.80;99.90;;;;;;4922610;29;20478;-83
2022/02/08 10:41:34;;;;;;;6.07;5.50;;;9.90;99.90;;;;;;4927333;29;20457;-82
2022/02/08 10:44:02;;;;;;;6.65;5.20;;;10.00;99.90;;;;;;4907222;29;20442;-81
2022/02/08 10:46:28;;;;;;;4.97;4.57;;;10.70;99.90;;;;;;4926803;29;20466;-81
2022/02/08 10:49:08;;;;;;;5.20;4.70;;;10.00;99.90;;;;;;4920104;29;20432;-82
2022/02/08 10:51:54;;;;;;;7.25;4.90;;;10.00;99.90;;;;;;4929634;29;20925;-83
2022/02/08 10:54:41;;;;;;;4.55;4.25;;;10.40;99.90;;;;;;4902872;29;20224;-83
2022/02/08 10:57:37;;;;;;;9.57;4.63;;;10.10;99.90;;;;;;4912354;29;20199;-84
2022/02/08 11:00:05;;;;;;;5.93;5.37;;;10.70;99.90;;;;;;4910420;29;20199;-84
2022/02/08 11:02:43;;;;;;;4.90;4.00;;;9.80;99.90;;;;;;4903853;29;20451;-83
2022/02/08 11:20:54;;;;;;;3.97;3.78;;;11.10;99.90;;;;;;4920967;29;20447;-83
2022/02/08 11:23:56;;;;;;;4.07;3.88;;;10.20;99.90;;;;;;4920794;29;20195;-84
2022/02/08 11:26:23;;;;;;;4.93;3.17;;;11.90;99.90;;;;;;4924762;29;20595;-82
2022/02/08 11:28:50;;;;;;;3.90;3.70;;;10.30;99.90;;;;;;4921074;29;20448;-83
2022/02/08 11:31:32;;;;;;;3.40;3.20;;;10.40;99.90;;;;;;4927245;29;20522;-83
2022/02/08 11:45:36;;;;;;;4.63;3.47;;;12.90;99.90;;;;;;4922607;29;20485;-84
2022/02/08 11:53:25;;;;;;;5.47;2.97;;;10.60;99.90;;;;;;4927608;29;20530;-84
2022/02/08 11:59:18;;;;;;;5.07;3.27;;;9.80;99.90;;;;;;4920255;29;20477;-80
2022/02/08 12:09:55;;;;;;;4.43;4.13;;;11.10;99.90;;;;;;4920189;29;20447;-83
2022/02/08 12:49:07;;;;;;;3.10;2.40;;;12.60;99.90;;;;;;4929378;29;20465;-84
2022/02/08 13:14:17;;;;;;;6.23;1.80;;;9.90;99.90;;;;;;4872992;29;20586;-82
2022/02/08 13:16:10;;;;;;;1.87;1.77;;;11.20;99.90;;;;;;4928797;29;20454;-84
2022/02/08 14:02:26;;;;;;;2.33;1.70;;;12.30;99.90;;;;;;4916321;29;20191;-85
2022/02/08 14:08:07;;;;;;;4.53;1.70;;;11.10;99.90;;;;;;4916607;29;20797;-84
2022/02/08 14:10:52;;;;;;;3.20;1.80;;;13.00;99.90;;;;;;4920431;29;20435;-83
2022/02/08 14:21:37;;;;;;;2.30;1.20;;;10.30;99.90;;;;;;4925711;29;20426;-85
2022/02/08 14:24:19;;;;;;;1.13;1.13;;;11.20;99.90;;;;;;4922906;29;20433;-83
2022/02/08 14:32:50;;;;;;;4.07;1.40;;;11.10;99.90;;;;;;4931194;29;20729;-84
2022/02/08 15:00:18;;;;;;;1.65;1.65;;;11.00;99.90;;;;;;4575151;29;10000726;-82
2022/02/08 15:08:33;;;;;;;3.57;1.37;;;11.00;99.90;;;;;;4868821;29;20549;-83
2022/02/08 15:11:06;;;;;;;3.47;3.20;;;10.00;99.90;;;;;;4912279;29;20447;-82
2022/02/08 15:13:43;;;;;;;8.37;2.37;;;10.50;99.90;;;;;;4911096;29;20438;-83
2022/02/08 15:16:35;;;;;;;5.03;1.77;;;11.80;99.90;;;;;;4926120;29;20477;-86
2022/02/08 15:19:01;;;;;;;1.30;1.20;;;11.50;99.90;;;;;;4921312;29;20423;-86
2022/02/08 15:21:31;;;;;;;7.03;1.87;;;9.60;99.90;;;;;;4904739;29;20447;-84
2022/02/08 15:23:57;;;;;;;5.87;1.60;;;9.90;99.90;;;;;;4909357;29;20983;-85
2022/02/08 15:26:23;;;;;;;3.77;1.57;;;12.10;99.90;;;;;;4904323;29;20447;-83
2022/02/08 15:28:49;;;;;;;6.80;1.40;;;11.00;99.90;;;;;;4904959;29;20698;-85
2022/02/08 15:31:17;;;;;;;3.70;1.90;;;9.80;99.90;;;;;;4920201;29;20471;-84
2022/02/08 15:33:43;;;;;;;4.73;1.50;;;13.30;99.90;;;;;;4907800;29;20653;-84
2022/02/08 15:36:18;;;;;;;1.90;1.80;;;12.30;99.90;;;;;;4902666;29;20542;-84
2022/02/08 15:38:51;;;;;;;2.43;1.80;;;11.00;99.90;;;;;;4896080;29;20605;-84
2022/02/08 15:41:23;;;;;;;4.33;1.60;;;11.20;99.90;;;;;;4925159;29;20439;-84
2022/02/08 15:44:02;;;;;;;4.83;1.40;;;11.00;99.90;;;;;;4904939;29;20431;-84
2022/02/08 15:46:33;;;;;;;2.13;2.00;;;11.00;99.90;;;;;;4926827;29;20494;-85
2022/02/08 15:49:00;;;;;;;1.87;1.70;;;12.60;99.90;;;;;;4907791;29;20438;-82
2022/02/08 15:51:42;;;;;;;1.53;1.40;;;11.30;99.90;;;;;;4902823;29;20755;-84
2022/02/08 15:54:20;;;;;;;1.90;1.50;;;11.30;99.90;;;;;;4909317;29;20543;-84
2022/02/08 16:05:23;;;;;;;3.27;2.13;;;11.10;99.90;;;;;;4923337;29;20721;-83
2022/02/08 16:08:07;;;;;;;4.20;1.50;;;11.00;99.90;;;;;;4895173;29;20424;-83
2022/02/08 16:10:46;;;;;;;4.10;1.50;;;10.70;99.90;;;;;;4904300;29;20504;-82
2022/02/08 16:16:03;;;;;;;2.10;1.90;;;10.90;99.90;;;;;;4918596;29;20442;-83
2022/02/08 16:18:40;;;;;;;1.27;1.10;;;11.00;99.90;;;;;;4934070;29;20676;-84
2022/02/08 16:22:12;;;;;;;2.67;1.50;;;10.50;99.90;;;;;;4921966;29;20203;-83
2022/02/08 16:29:52;;;;;;;1.00;1.00;;;10.70;99.90;;;;;;4923532;29;20852;-82
2022/02/08 16:46:54;;;;;;;2.80;1.80;;;9.50;99.90;;;;;;4921222;29;20434;-84
2022/02/08 17:00:45;;;;;;;2.53;1.40;;;10.60;99.90;;;;;;4901027;29;20506;-85
2022/02/08 17:03:31;;;;;;;1.30;1.30;;;10.30;99.90;;;;;;4910158;29;20475;-83
2022/02/08 17:06:06;;;;;;;1.27;1.27;;;10.60;99.90;;;;;;4909188;29;20212;-84
2022/02/08 17:08:32;;;;;;;3.07;1.43;;;10.60;99.90;;;;;;4882029;29;20496;-84
2022/02/08 17:11:00;;;;;;;2.97;1.67;;;13.30;99.90;;;;;;4893950;29;20671;-82
2022/02/08 17:16:33;;;;;;;4.43;1.40;;;12.50;99.90;;;;;;4912578;29;20251;-84
2022/02/08 17:46:34;;;;;;;2.50;2.40;;;11.00;99.90;;;;;;4911144;29;20190;-81
2022/02/08 17:49:00;;;;;;;3.40;2.17;;;9.90;99.90;;;;;;4888954;29;20452;-82
2022/02/08 17:51:25;;;;;;;2.63;2.53;;;10.70;99.90;;;;;;4889103;29;20482;-81
2022/02/08 17:53:51;;;;;;;3.50;2.93;;;10.70;99.90;;;;;;4893254;29;20203;-82
2022/02/08 17:56:17;;;;;;;3.30;3.10;;;12.10;99.90;;;;;;4918694;29;20219;-82
2022/02/08 17:58:44;;;;;;;3.23;2.90;;;10.40;99.90;;;;;;4918176;29;20283;-82
2022/02/08 18:01:10;;;;;;;3.80;3.50;;;11.20;99.90;;;;;;4901541;29;20210;-83
2022/02/08 18:03:35;;;;;;;2.50;2.43;;;10.80;99.90;;;;;;4915271;29;20456;-84
2022/02/08 18:06:01;;;;;;;2.80;2.80;;;10.60;99.90;;;;;;4902337;29;20184;-82
2022/02/08 18:08:28;;;;;;;2.80;2.60;;;10.70;99.90;;;;;;4894086;29;20237;-82
2022/02/08 18:10:57;;;;;;;3.03;2.50;;;10.60;99.90;;;;;;4902404;29;20258;-82
2022/02/08 18:13:27;;;;;;;2.53;2.53;;;10.60;99.90;;;;;;4920684;29;20505;-83
2022/02/08 18:15:52;;;;;;;2.50;2.40;;;10.60;99.90;;;;;;4906190;29;20828;-77
2022/02/08 18:18:23;;;;;;;2.57;2.47;;;10.60;99.90;;;;;;4896397;29;20435;-83
2022/02/08 18:20:54;;;;;;;3.25;2.42;;;10.60;99.90;;;;;;4905362;29;20426;-82
2022/02/08 18:28:40;;;;;;;4.13;2.60;;;13.20;99.90;;;;;;4920988;29;20243;-82
2022/02/08 18:56:23;;;;;;;2.30;2.20;;;10.40;99.90;;;;;;4907393;29;20558;-82
2022/02/08 19:10:08;;;;;;;2.63;2.50;;;10.30;99.90;;;;;;4915180;29;20454;-83
2022/02/08 19:12:41;;;;;;;4.43;2.70;;;10.30;99.90;;;;;;4906876;29;21027;-83
2022/02/08 19:23:34;;;;;;;2.97;2.97;;;10.40;99.90;;;;;;4918877;29;20718;-83
2022/02/08 19:26:03;;;;;;;3.97;3.70;;;10.30;99.90;;;;;;4901871;29;21166;-83
2022/02/08 19:28:29;;;;;;;3.40;3.20;;;10.50;99.90;;;;;;4917002;29;20822;-84
2022/02/08 19:30:54;;;;;;;2.73;2.67;;;10.30;99.90;;;;;;4919570;29;20487;-83
2022/02/08 19:33:26;;;;;;;2.97;2.80;;;10.20;99.90;;;;;;4924031;29;20231;-83
2022/02/08 19:35:52;;;;;;;2.60;2.40;;;9.00;99.90;;;;;;4906451;29;20191;-85
2022/02/08 19:38:21;;;;;;;2.28;2.17;;;10.10;99.90;;;;;;4901783;29;20447;-82
2022/02/08 19:40:46;;;;;;;2.73;2.50;;;10.20;99.90;;;;;;4924643;29;20191;-81
2022/02/08 19:43:12;;;;;;;2.53;2.50;;;11.00;99.90;;;;;;4901819;29;20538;-83
2022/02/08 19:45:43;;;;;;;7.90;2.63;;;10.20;99.90;;;;;;4902002;29;20300;-82
2022/02/08 19:48:15;;;;;;;5.00;2.63;;;10.20;99.90;;;;;;4915080;29;20227;-83
2022/02/08 19:50:44;;;;;;;2.60;2.50;;;10.20;99.90;;;;;;4903379;29;20856;-81
2022/02/08 19:53:10;;;;;;;2.40;2.30;;;9.80;99.90;;;;;;4907121;29;20542;-82
2022/02/08 19:55:50;;;;;;;3.30;3.20;;;10.50;99.90;;;;;;4905947;29;20507;-82
2022/02/08 19:58:26;;;;;;;2.53;2.53;;;10.70;99.90;;;;;;4903463;29;20191;-79
2022/02/08 20:01:00;;;;;;;2.40;2.27;;;12.00;99.90;;;;;;4900587;29;20430;-83
2022/02/08 20:03:32;;;;;;;2.58;2.58;;;10.20;99.90;;;;;;4917520;29;20601;-82
2022/02/08 20:05:58;;;;;;;2.58;2.47;;;10.10;99.90;;;;;;4917719;29;20490;-82
2022/02/08 20:08:26;;;;;;;2.90;2.80;;;11.50;99.90;;;;;;4902261;29;20530;-83
2022/02/08 20:10:54;;;;;;;2.90;2.70;;;10.20;99.90;;;;;;4901621;29;20186;-81
2022/02/08 20:13:26;;;;;;;3.00;2.70;;;10.10;99.90;;;;;;4904208;29;20482;-83
2022/02/08 20:15:53;;;;;;;2.80;2.70;;;10.00;99.90;;;;;;4916915;29;20431;-84
2022/02/08 20:18:19;;;;;;;2.60;2.50;;;11.10;99.90;;;;;;4919011;29;20499;-83
2022/02/08 20:20:47;;;;;;;2.33;2.30;;;10.10;99.90;;;;;;4901675;29;20506;-82
2022/02/08 20:23:14;;;;;;;4.23;2.00;;;10.20;99.90;;;;;;4898569;29;20442;-84
2022/02/08 20:25:54;;;;;;;3.57;2.40;;;11.80;99.90;;;;;;4904231;29;20455;-84
2022/02/08 20:28:37;;;;;;;4.67;2.20;;;10.10;99.90;;;;;;4900826;29;20442;-84
2022/02/08 20:31:03;;;;;;;1.80;1.80;;;9.70;99.90;;;;;;4904982;29;20431;-84
2022/02/08 20:33:29;;;;;;;2.03;1.93;;;9.80;99.90;;;;;;4908008;29;20473;-83
2022/02/08 20:36:07;;;;;;;;;;;;;;;;;;;;;
2022/02/08 20:38:34;;;;;;;1.63;1.63;;;10.00;99.90;;;;;;4925484;29;20194;-85
2022/02/08 20:40:59;;;;;;;2.43;1.50;;;11.80;99.90;;;;;;4920712;29;20443;-84
2022/02/08 20:43:31;;;;;;;2.70;1.90;;;10.30;99.90;;;;;;4921718;29;20202;-83
2022/02/08 20:45:57;;;;;;;1.40;1.40;;;11.00;99.90;;;;;;4924114;29;20538;-84
2022/02/08 20:48:25;;;;;;;1.73;1.73;;;11.20;99.90;;;;;;4920064;29;20736;-84
2022/02/08 20:50:53;;;;;;;2.00;1.90;;;10.00;99.90;;;;;;4924053;29;20221;-85
2022/02/08 20:53:35;;;;;;;1.70;1.70;;;10.00;99.90;;;;;;4905938;29;20227;-85
2022/02/08 21:01:31;;;;;;;2.20;2.10;;;11.00;99.90;;;;;;4924367;29;20441;-84
2022/02/08 21:04:02;;;;;;;1.83;1.83;;;10.30;99.90;;;;;;4919016;29;20816;-83